Time;durP1;ratioP1;P1;durP2;ratioP2;P2;SDS_P1;SDS_P2;PMS_P1;PMS_P2;Temp;Humidity;BMP_temperature;BMP_pressure;BME280_temperature;BME280_humidity;BME280_pressure;Samples;Min_cycle;Max_cycle;Signal;HPM_P1;HPM_P2
2021/10/09 00:00:29;;;;;;;8.52;6.50;;;;;;;;;;5087246;28;20031;-60
2021/10/09 00:02:54;;;;;;;8.93;6.72;;;;;;;;;;5089850;28;20020;-61
2021/10/09 00:05:20;;;;;;;9.40;6.72;;;;;;;;;;5088113;28;20032;-61
2021/10/09 00:07:45;;;;;;;10.35;8.00;;;;;;;;;;5083071;28;20040;-61
2021/10/09 00:10:13;;;;;;;10.65;6.45;;;;;;;;;;5090247;28;20036;-62
2021/10/09 00:12:38;;;;;;;9.20;7.13;;;;;;;;;;5088837;28;20024;-62
2021/10/09 00:15:05;;;;;;;6.78;5.55;;;;;;;;;;5087835;28;20081;-62
2021/10/09 00:17:31;;;;;;;7.93;6.38;;;;;;;;;;5091136;28;20032;-62
2021/10/09 00:19:56;;;;;;;10.25;7.57;;;;;;;;;;5090664;28;20414;-62
2021/10/09 00:22:22;;;;;;;11.40;7.97;;;;;;;;;;5091383;28;20748;-62
2021/10/09 00:24:47;;;;;;;8.02;6.03;;;;;;;;;;5091326;28;20078;-61
2021/10/09 00:27:13;;;;;;;8.95;6.40;;;;;;;;;;5090423;28;20033;-61
2021/10/09 00:29:40;;;;;;;8.48;7.00;;;;;;;;;;5088830;28;20035;-61
2021/10/09 00:32:05;;;;;;;11.90;6.57;;;;;;;;;;5089248;28;20028;-61
2021/10/09 00:34:31;;;;;;;11.23;8.10;;;;;;;;;;5087896;28;20111;-61
2021/10/09 00:36:56;;;;;;;8.55;6.95;;;;;;;;;;5091269;28;20028;-62
2021/10/09 00:39:22;;;;;;;13.45;6.43;;;;;;;;;;5096347;28;20055;-61
2021/10/09 00:41:47;;;;;;;8.13;6.68;;;;;;;;;;5090423;28;20031;-61
2021/10/09 00:44:15;;;;;;;11.52;8.65;;;;;;;;;;5091201;28;20180;-61
2021/10/09 00:46:41;;;;;;;10.25;6.53;;;;;;;;;;5091817;28;20044;-61
2021/10/09 00:49:08;;;;;;;10.63;8.75;;;;;;;;;;5087687;28;20024;-60
2021/10/09 00:51:33;;;;;;;13.48;8.07;;;;;;;;;;5091985;28;20027;-60
2021/10/09 00:54:00;;;;;;;10.23;7.30;;;;;;;;;;5089536;28;20047;-61
2021/10/09 00:56:33;;;;;;;12.30;8.02;;;;;;;;;;5090724;28;20035;-61
2021/10/09 00:58:59;;;;;;;10.60;8.27;;;;;;;;;;5090306;28;20169;-61
2021/10/09 01:01:25;;;;;;;9.95;7.75;;;;;;;;;;5094890;28;20472;-61
2021/10/09 01:03:51;;;;;;;10.10;7.90;;;;;;;;;;5086071;28;20039;-61
2021/10/09 01:06:17;;;;;;;8.35;5.85;;;;;;;;;;5091517;28;20035;-61
2021/10/09 01:08:43;;;;;;;17.25;6.85;;;;;;;;;;5089781;28;20015;-61
2021/10/09 01:11:08;;;;;;;8.38;5.60;;;;;;;;;;5082094;28;20044;-61
2021/10/09 01:13:33;;;;;;;10.95;7.72;;;;;;;;;;5088458;28;20020;-61
2021/10/09 01:15:59;;;;;;;8.07;7.13;;;;;;;;;;5087386;28;20039;-61
2021/10/09 01:18:24;;;;;;;10.63;7.10;;;;;;;;;;5090977;28;20457;-61
2021/10/09 01:20:53;;;;;;;8.18;6.95;;;;;;;;;;5091682;28;20048;-61
2021/10/09 01:23:19;;;;;;;8.38;6.43;;;;;;;;;;5088836;28;20042;-61
2021/10/09 01:25:45;;;;;;;8.13;6.47;;;;;;;;;;5086914;28;20054;-61
2021/10/09 01:28:11;;;;;;;8.55;6.55;;;;;;;;;;5090628;28;20120;-61
2021/10/09 01:30:36;;;;;;;11.82;8.65;;;;;;;;;;5090974;28;20370;-61
2021/10/09 01:33:03;;;;;;;13.07;7.35;;;;;;;;;;5094611;28;20034;-61
2021/10/09 01:35:28;;;;;;;10.27;8.43;;;;;;;;;;5097022;28;20092;-61
2021/10/09 01:37:54;;;;;;;13.18;7.75;;;;;;;;;;5090421;28;20032;-61
2021/10/09 01:40:19;;;;;;;7.63;5.82;;;;;;;;;;5094155;28;20119;-61
2021/10/09 01:42:45;;;;;;;8.43;6.93;;;;;;;;;;5097241;28;20477;-61
2021/10/09 01:45:10;;;;;;;9.15;6.45;;;;;;;;;;5089458;28;20457;-61
2021/10/09 01:47:40;;;;;;;8.85;6.90;;;;;;;;;;5089000;28;20110;-61
2021/10/09 01:50:07;;;;;;;8.77;7.53;;;;;;;;;;5090847;28;20055;-61
2021/10/09 01:52:33;;;;;;;10.10;6.80;;;;;;;;;;5092939;28;20036;-60
2021/10/09 01:54:58;;;;;;;8.27;6.53;;;;;;;;;;5089942;28;20081;-60
2021/10/09 01:57:23;;;;;;;12.32;6.13;;;;;;;;;;5090282;28;20032;-61
2021/10/09 01:59:49;;;;;;;9.07;6.63;;;;;;;;;;5091183;28;20034;-60
2021/10/09 02:02:14;;;;;;;8.77;6.28;;;;;;;;;;5087589;28;20043;-60
2021/10/09 02:04:40;;;;;;;7.93;6.78;;;;;;;;;;5092684;28;20024;-60
2021/10/09 02:07:07;;;;;;;9.50;7.47;;;;;;;;;;5090830;28;20031;-61
2021/10/09 02:09:32;;;;;;;9.93;7.15;;;;;;;;;;5088303;28;20153;-61
2021/10/09 02:11:59;;;;;;;8.45;5.68;;;;;;;;;;5085753;28;20520;-61
2021/10/09 02:25:27;;;;;;;11.68;6.53;;;;;;;;;;5088615;28;20111;-61
2021/10/09 02:27:56;;;;;;;8.05;6.45;;;;;;;;;;5088601;28;20044;-62
2021/10/09 02:30:22;;;;;;;10.45;5.38;;;;;;;;;;5091656;28;20042;-60
2021/10/09 02:32:47;;;;;;;9.70;6.25;;;;;;;;;;5088473;28;20024;-61
2021/10/09 02:35:13;;;;;;;8.95;5.95;;;;;;;;;;5085079;28;20075;-61
2021/10/09 02:37:39;;;;;;;10.70;7.35;;;;;;;;;;5084688;28;20372;-61
2021/10/09 02:40:05;;;;;;;10.50;5.65;;;;;;;;;;5087600;28;20428;-61
2021/10/09 02:42:31;;;;;;;10.52;6.78;;;;;;;;;;5087611;28;20103;-63
2021/10/09 02:44:56;;;;;;;8.07;6.53;;;;;;;;;;5087230;28;20115;-62
2021/10/09 02:47:30;;;;;;;8.85;6.82;;;;;;;;;;5091625;28;20032;-62
2021/10/09 02:49:56;;;;;;;6.80;5.10;;;;;;;;;;5083655;28;20072;-62
2021/10/09 02:52:21;;;;;;;7.50;5.93;;;;;;;;;;5091248;28;20032;-60
2021/10/09 02:54:46;;;;;;;8.27;6.47;;;;;;;;;;5091586;28;20055;-62
2021/10/09 02:57:12;;;;;;;8.45;6.38;;;;;;;;;;5086410;28;20032;-60
2021/10/09 02:59:38;;;;;;;7.45;5.95;;;;;;;;;;5086663;28;20033;-60
2021/10/09 03:02:03;;;;;;;8.30;7.38;;;;;;;;;;5091232;28;20028;-62
2021/10/09 03:04:29;;;;;;;9.52;6.82;;;;;;;;;;5086867;28;20542;-63
2021/10/09 03:06:54;;;;;;;8.15;5.78;;;;;;;;;;5091087;28;20062;-62
2021/10/09 03:09:19;;;;;;;8.07;6.10;;;;;;;;;;5085297;28;20090;-62
2021/10/09 03:11:45;;;;;;;7.97;7.03;;;;;;;;;;5087068;28;20089;-62
2021/10/09 03:14:10;;;;;;;10.85;7.82;;;;;;;;;;5085045;28;20038;-63
2021/10/09 03:16:36;;;;;;;14.23;6.90;;;;;;;;;;5087086;28;20086;-63
2021/10/09 03:19:01;;;;;;;7.35;6.05;;;;;;;;;;5084090;28;20108;-61
2021/10/09 03:21:27;;;;;;;9.93;6.43;;;;;;;;;;5089372;28;20089;-62
2021/10/09 03:23:52;;;;;;;8.85;6.15;;;;;;;;;;5094618;28;20688;-62
2021/10/09 03:26:17;;;;;;;8.98;6.50;;;;;;;;;;5087102;28;20070;-62
2021/10/09 03:28:43;;;;;;;6.93;6.03;;;;;;;;;;5089276;28;20101;-62
2021/10/09 03:31:08;;;;;;;9.13;7.60;;;;;;;;;;5092275;28;20459;-62
2021/10/09 03:33:34;;;;;;;8.98;5.00;;;;;;;;;;5086562;28;20064;-62
2021/10/09 03:35:59;;;;;;;6.80;5.60;;;;;;;;;;5085046;28;20028;-62
2021/10/09 03:38:25;;;;;;;7.03;6.10;;;;;;;;;;5091521;28;20103;-62
2021/10/09 03:40:57;;;;;;;6.68;5.97;;;;;;;;;;5088162;28;20032;-62
2021/10/09 03:43:23;;;;;;;8.90;6.28;;;;;;;;;;5085741;28;20032;-62
2021/10/09 03:46:02;;;;;;;9.25;6.93;;;;;;;;;;5088085;28;20038;-62
2021/10/09 03:54:09;;;;;;;7.85;6.65;;;;;;;;;;5091174;28;20032;-61
2021/10/09 03:56:34;;;;;;;10.27;6.82;;;;;;;;;;5092626;28;20089;-61
2021/10/09 03:59:04;;;;;;;6.80;5.55;;;;;;;;;;5092909;28;20028;-62
2021/10/09 04:01:29;;;;;;;15.43;6.50;;;;;;;;;;5087901;28;20067;-62
2021/10/09 04:03:55;;;;;;;10.07;6.57;;;;;;;;;;5091071;28;20064;-61
2021/10/09 04:06:20;;;;;;;11.77;6.25;;;;;;;;;;5088983;28;20032;-62
2021/10/09 04:08:45;;;;;;;8.40;5.60;;;;;;;;;;5087385;28;20063;-61
2021/10/09 04:11:11;;;;;;;8.93;6.20;;;;;;;;;;5093763;28;20127;-61
2021/10/09 04:13:36;;;;;;;9.77;7.15;;;;;;;;;;5097433;28;20408;-61
2021/10/09 04:16:01;;;;;;;6.22;5.28;;;;;;;;;;5088037;28;20032;-61
2021/10/09 04:18:27;;;;;;;8.90;6.50;;;;;;;;;;5088095;28;20396;-62
2021/10/09 04:20:52;;;;;;;7.57;5.50;;;;;;;;;;5090310;28;20035;-62
2021/10/09 04:23:18;;;;;;;12.05;5.95;;;;;;;;;;5088722;28;20020;-62
2021/10/09 04:25:43;;;;;;;7.63;6.15;;;;;;;;;;5090742;28;20496;-63
2021/10/09 04:28:08;;;;;;;8.68;6.22;;;;;;;;;;5087717;28;20051;-62
2021/10/09 04:30:34;;;;;;;7.80;6.70;;;;;;;;;;5091036;28;20427;-60
2021/10/09 04:33:01;;;;;;;7.90;6.28;;;;;;;;;;5092205;28;20119;-62
2021/10/09 04:35:26;;;;;;;7.75;6.78;;;;;;;;;;5093413;28;20052;-62
2021/10/09 04:37:52;;;;;;;7.25;5.40;;;;;;;;;;5086134;28;20044;-63
2021/10/09 04:40:17;;;;;;;9.70;6.32;;;;;;;;;;5094039;28;20070;-62
2021/10/09 04:42:43;;;;;;;6.70;5.25;;;;;;;;;;5090578;28;20028;-62
2021/10/09 04:45:09;;;;;;;11.50;7.53;;;;;;;;;;5085716;28;20424;-62
2021/10/09 04:47:34;;;;;;;7.60;6.32;;;;;;;;;;5089768;28;20039;-61
2021/10/09 04:50:00;;;;;;;9.32;5.60;;;;;;;;;;5091886;28;20039;-62
2021/10/09 04:52:25;;;;;;;7.68;5.50;;;;;;;;;;5087932;28;20046;-61
2021/10/09 04:54:50;;;;;;;16.13;6.60;;;;;;;;;;5091274;28;20059;-61
2021/10/09 04:57:16;;;;;;;9.10;6.47;;;;;;;;;;5087444;28;20042;-60
2021/10/09 04:59:41;;;;;;;10.15;5.68;;;;;;;;;;5087165;28;20059;-60
2021/10/09 05:02:07;;;;;;;11.60;6.15;;;;;;;;;;5089235;28;20474;-60
2021/10/09 05:04:32;;;;;;;11.15;6.68;;;;;;;;;;5090857;28;20115;-60
2021/10/09 05:06:57;;;;;;;9.13;6.53;;;;;;;;;;5091731;28;20043;-61
2021/10/09 05:09:23;;;;;;;8.18;5.85;;;;;;;;;;5089919;28;20039;-60
2021/10/09 05:11:48;;;;;;;26.70;6.70;;;;;;;;;;5087723;28;20374;-60
2021/10/09 05:14:14;;;;;;;8.55;5.85;;;;;;;;;;5088555;28;20024;-60
2021/10/09 05:16:39;;;;;;;10.18;6.88;;;;;;;;;;5089469;28;20020;-60
2021/10/09 05:19:05;;;;;;;9.02;6.07;;;;;;;;;;5086007;28;20039;-60
2021/10/09 05:21:30;;;;;;;7.65;6.25;;;;;;;;;;5090822;28;20043;-60
2021/10/09 05:23:56;;;;;;;9.38;6.30;;;;;;;;;;5097715;28;20051;-60
2021/10/09 05:26:22;;;;;;;8.05;5.93;;;;;;;;;;5090389;28;20032;-62
2021/10/09 05:28:48;;;;;;;11.90;6.68;;;;;;;;;;5094978;28;20158;-60
2021/10/09 05:31:32;;;;;;;9.27;5.53;;;;;;;;;;5092763;28;20032;-60
2021/10/09 05:33:57;;;;;;;8.63;6.13;;;;;;;;;;5089414;28;20482;-60
2021/10/09 05:36:24;;;;;;;11.23;6.05;;;;;;;;;;5086231;28;20108;-60
2021/10/09 05:38:52;;;;;;;10.07;7.20;;;;;;;;;;5091521;28;20062;-60
2021/10/09 05:41:18;;;;;;;12.98;6.35;;;;;;;;;;5090654;28;20032;-61
2021/10/09 05:43:45;;;;;;;8.57;6.55;;;;;;;;;;5092760;28;20093;-61
2021/10/09 05:46:12;;;;;;;7.95;6.20;;;;;;;;;;5088743;28;20032;-61
2021/10/09 05:48:39;;;;;;;8.48;5.57;;;;;;;;;;5088880;28;20063;-61
2021/10/09 05:51:09;;;;;;;7.63;5.55;;;;;;;;;;5091935;28;20039;-60
2021/10/09 07:00:23;;;;;;;8.57;6.13;;;;;;;;;;5087716;28;21084;-61
2021/10/09 07:02:48;;;;;;;7.40;6.18;;;;;;;;;;5085815;28;20445;-61
2021/10/09 07:05:14;;;;;;;12.73;6.97;;;;;;;;;;5087238;28;20043;-61
2021/10/09 07:07:43;;;;;;;17.15;8.10;;;;;;;;;;5084894;28;20392;-61
2021/10/09 07:10:10;;;;;;;7.45;5.93;;;;;;;;;;5083351;28;20039;-61
2021/10/09 07:12:36;;;;;;;8.35;6.68;;;;;;;;;;5085819;28;20100;-60
2021/10/09 07:15:01;;;;;;;8.20;6.38;;;;;;;;;;5087458;28;20040;-60
2021/10/09 07:17:27;;;;;;;7.72;6.93;;;;;;;;;;5086553;28;20027;-60
2021/10/09 07:19:52;;;;;;;6.32;5.65;;;;;;;;;;5087268;28;20036;-60
2021/10/09 07:22:18;;;;;;;10.02;7.47;;;;;;;;;;5089378;28;20229;-60
2021/10/09 07:24:43;;;;;;;8.57;5.63;;;;;;;;;;5086943;28;20016;-60
2021/10/09 07:27:08;;;;;;;10.00;6.75;;;;;;;;;;5093509;28;20031;-60
2021/10/09 07:29:34;;;;;;;6.45;5.18;;;;;;;;;;5087820;28;20031;-59
2021/10/09 07:31:59;;;;;;;19.85;8.20;;;;;;;;;;5090099;28;20052;-60
2021/10/09 07:34:24;;;;;;;9.15;6.63;;;;;;;;;;5089667;28;20042;-61
2021/10/09 07:36:50;;;;;;;10.20;6.85;;;;;;;;;;5092184;28;20036;-61
2021/10/09 07:39:15;;;;;;;8.68;6.50;;;;;;;;;;5091496;28;20115;-60
2021/10/09 07:41:41;;;;;;;9.88;7.00;;;;;;;;;;5092323;28;20508;-60
2021/10/09 07:44:06;;;;;;;9.35;5.72;;;;;;;;;;5087649;28;20524;-60
2021/10/09 07:46:32;;;;;;;8.55;5.75;;;;;;;;;;5094113;28;20055;-60
2021/10/09 07:48:57;;;;;;;8.05;6.13;;;;;;;;;;5100850;28;20032;-60
2021/10/09 07:51:22;;;;;;;22.63;7.18;;;;;;;;;;5097664;28;20064;-60
2021/10/09 07:53:48;;;;;;;7.10;5.55;;;;;;;;;;5092193;28;20042;-60
2021/10/09 07:56:13;;;;;;;6.90;5.28;;;;;;;;;;5094898;28;20032;-60
2021/10/09 07:58:39;;;;;;;10.93;5.90;;;;;;;;;;5092202;28;20214;-60
2021/10/09 08:01:04;;;;;;;7.20;5.00;;;;;;;;;;5090308;28;20474;-60
2021/10/09 08:03:29;;;;;;;6.55;5.60;;;;;;;;;;5089145;28;20042;-61
2021/10/09 08:05:55;;;;;;;7.40;5.15;;;;;;;;;;5093160;28;20091;-60
2021/10/09 08:08:21;;;;;;;11.10;5.07;;;;;;;;;;5096777;28;20059;-60
2021/10/09 08:10:48;;;;;;;11.65;6.00;;;;;;;;;;5091560;28;20347;-61
2021/10/09 08:13:15;;;;;;;6.15;4.45;;;;;;;;;;5094052;28;20051;-60
2021/10/09 08:15:41;;;;;;;8.45;5.53;;;;;;;;;;5098378;28;20528;-60
2021/10/09 08:18:07;;;;;;;5.85;4.72;;;;;;;;;;5085815;28;20028;-60
2021/10/09 08:20:32;;;;;;;6.30;4.68;;;;;;;;;;5093037;28;20039;-60
2021/10/09 08:23:05;;;;;;;6.43;4.03;;;;;;;;;;5092915;28;20028;-61
2021/10/09 08:36:37;;;;;;;5.65;4.20;;;;;;;;;;5093880;28;20038;-60
2021/10/09 08:39:04;;;;;;;11.18;5.22;;;;;;;;;;5089773;28;20111;-60
2021/10/09 08:41:30;;;;;;;5.82;4.70;;;;;;;;;;5089938;28;20042;-60
2021/10/09 08:43:56;;;;;;;4.70;3.72;;;;;;;;;;5092228;28;20036;-61
2021/10/09 08:46:21;;;;;;;5.68;4.78;;;;;;;;;;5087021;28;20112;-60
2021/10/09 08:48:50;;;;;;;5.70;3.63;;;;;;;;;;5090321;28;20086;-60
2021/10/09 08:51:27;;;;;;;6.97;4.25;;;;;;;;;;5087687;28;20048;-61
2021/10/09 08:53:54;;;;;;;8.05;4.68;;;;;;;;;;5085984;28;20051;-60
2021/10/09 08:56:44;;;;;;;5.13;4.25;;;;;;;;;;5092906;28;20590;-60
2021/10/09 08:59:17;;;;;;;6.30;4.85;;;;;;;;;;5087089;28;20482;-60
2021/10/09 09:01:59;;;;;;;5.22;3.97;;;;;;;;;;5090588;28;20032;-61
2021/10/09 09:04:44;;;;;;;4.70;4.10;;;;;;;;;;5091809;28;20377;-61
2021/10/09 09:27:04;;;;;;;7.03;5.03;;;;;;;;;;5094129;28;20039;-61
2021/10/09 09:40:09;;;;;;;9.50;5.03;;;;;;;;;;5085781;28;20032;-61
2021/10/09 09:42:52;;;;;;;6.55;4.15;;;;;;;;;;5090040;28;20106;-61
2021/10/09 09:45:22;;;;;;;6.22;4.03;;;;;;;;;;5090634;28;20024;-61
2021/10/09 09:47:48;;;;;;;10.00;4.68;;;;;;;;;;5079267;28;20543;-61
2021/10/09 09:50:15;;;;;;;6.35;4.38;;;;;;;;;;5089388;28;20150;-60
2021/10/09 09:52:43;;;;;;;6.38;4.00;;;;;;;;;;5084121;28;20032;-60
2021/10/09 09:55:11;;;;;;;8.25;4.72;;;;;;;;;;5089967;28;20085;-60
2021/10/09 09:57:38;;;;;;;3.90;2.88;;;;;;;;;;5089900;28;20031;-62
2021/10/09 10:00:09;;;;;;;5.72;4.55;;;;;;;;;;5089947;28;20036;-60
2021/10/09 10:02:44;;;;;;;6.85;3.92;;;;;;;;;;5080152;28;20046;-61
2021/10/09 10:05:12;;;;;;;5.03;3.83;;;;;;;;;;5091312;28;20028;-61
2021/10/09 10:07:38;;;;;;;8.90;5.82;;;;;;;;;;5089544;28;20046;-61
2021/10/09 10:10:04;;;;;;;5.95;4.57;;;;;;;;;;5095789;28;20028;-61
2021/10/09 10:12:30;;;;;;;4.93;3.13;;;;;;;;;;5086522;28;20039;-61
2021/10/09 10:14:57;;;;;;;3.95;3.33;;;;;;;;;;5090696;28;20046;-60
2021/10/09 10:17:46;;;;;;;4.28;3.85;;;;;;;;;;5090362;28;20580;-60
2021/10/09 10:20:13;;;;;;;3.63;2.95;;;;;;;;;;5089792;28;20047;-60
2021/10/09 10:22:40;;;;;;;6.25;4.90;;;;;;;;;;5088283;28;20031;-61
2021/10/09 10:25:24;;;;;;;7.38;5.30;;;;;;;;;;5092946;28;20570;-61
2021/10/09 10:28:21;;;;;;;4.57;3.78;;;;;;;;;;5087303;28;20123;-62
2021/10/09 10:31:05;;;;;;;6.22;4.05;;;;;;;;;;5083539;28;20741;-60
2021/10/09 10:33:37;;;;;;;7.72;3.95;;;;;;;;;;5087890;28;20545;-61
2021/10/09 10:36:04;;;;;;;5.93;4.43;;;;;;;;;;5087655;28;20653;-62
2021/10/09 10:38:38;;;;;;;4.75;3.95;;;;;;;;;;5089594;28;20085;-60
2021/10/09 10:41:04;;;;;;;8.30;4.00;;;;;;;;;;5089982;28;20047;-60
2021/10/09 10:43:40;;;;;;;6.75;3.85;;;;;;;;;;5087503;28;20056;-61
2021/10/09 10:49:01;;;;;;;5.63;4.35;;;;;;;;;;5090182;28;20038;-62
2021/10/09 10:57:03;;;;;;;5.40;3.63;;;;;;;;;;5089622;28;20848;-61
2021/10/09 11:00:13;;;;;;;8.90;3.50;;;;;;;;;;5089322;28;20102;-60
2021/10/09 11:02:46;;;;;;;5.25;4.00;;;;;;;;;;5040836;28;20716;-60
2021/10/09 11:05:14;;;;;;;4.65;3.50;;;;;;;;;;5087125;28;20036;-60
2021/10/09 11:07:42;;;;;;;8.60;4.28;;;;;;;;;;5087292;28;20081;-59
2021/10/09 11:10:16;;;;;;;3.78;3.03;;;;;;;;;;5087717;28;20040;-62
2021/10/09 11:12:47;;;;;;;7.00;4.38;;;;;;;;;;5086399;28;20040;-60
2021/10/09 11:15:17;;;;;;;4.35;3.15;;;;;;;;;;5084974;28;20047;-61
2021/10/09 11:17:45;;;;;;;5.90;3.67;;;;;;;;;;5085223;28;20032;-62
2021/10/09 11:20:18;;;;;;;5.13;3.47;;;;;;;;;;5088318;28;20075;-62
2021/10/09 11:22:47;;;;;;;4.25;2.97;;;;;;;;;;5088656;28;20024;-61
2021/10/09 11:25:23;;;;;;;7.63;3.35;;;;;;;;;;5088686;28;20077;-63
2021/10/09 11:27:49;;;;;;;3.60;3.13;;;;;;;;;;5089604;28;20036;-62
2021/10/09 11:30:15;;;;;;;4.80;3.78;;;;;;;;;;5090912;28;20040;-63
2021/10/09 11:32:43;;;;;;;3.72;3.15;;;;;;;;;;5090043;28;20070;-62
2021/10/09 11:35:10;;;;;;;4.63;3.88;;;;;;;;;;5087807;28;20469;-61
2021/10/09 11:37:48;;;;;;;5.18;3.13;;;;;;;;;;5085150;28;20036;-65
2021/10/09 11:40:15;;;;;;;16.65;7.53;;;;;;;;;;5086665;28;20103;-62
2021/10/09 11:42:57;;;;;;;5.63;3.53;;;;;;;;;;5085822;28;20127;-63
2021/10/09 11:45:38;;;;;;;5.68;4.55;;;;;;;;;;5086088;28;20036;-62
2021/10/09 11:53:52;;;;;;;4.50;3.00;;;;;;;;;;5087516;28;20048;-62
2021/10/09 11:56:20;;;;;;;10.07;5.65;;;;;;;;;;5088194;28;20334;-62
2021/10/09 11:58:54;;;;;;;5.07;3.85;;;;;;;;;;5093042;28;20467;-63
2021/10/09 12:01:27;;;;;;;4.43;3.50;;;;;;;;;;5085736;28;20078;-63
2021/10/09 12:03:52;;;;;;;3.67;3.03;;;;;;;;;;5085748;28;20024;-62
2021/10/09 12:06:18;;;;;;;4.65;3.45;;;;;;;;;;5086170;28;20042;-63
2021/10/09 12:09:07;;;;;;;5.22;3.78;;;;;;;;;;5090243;28;20461;-63
2021/10/09 12:11:32;;;;;;;3.53;2.70;;;;;;;;;;5089472;28;20063;-63
2021/10/09 12:14:03;;;;;;;5.88;4.13;;;;;;;;;;5089255;28;20032;-63
2021/10/09 12:16:31;;;;;;;3.92;2.83;;;;;;;;;;5088611;28;20028;-62
2021/10/09 12:19:01;;;;;;;3.72;2.85;;;;;;;;;;5089089;28;20493;-63
2021/10/09 12:21:48;;;;;;;4.47;3.15;;;;;;;;;;5085379;28;20035;-63
2021/10/09 12:24:22;;;;;;;4.72;3.25;;;;;;;;;;5072403;28;20035;-63
2021/10/09 12:27:14;;;;;;;4.32;2.88;;;;;;;;;;5085976;28;20036;-63
2021/10/09 12:30:04;;;;;;;3.13;2.45;;;;;;;;;;5089710;28;20032;-63
2021/10/09 12:32:40;;;;;;;3.50;2.92;;;;;;;;;;5083047;28;20036;-63
2021/10/09 12:35:13;;;;;;;3.90;3.22;;;;;;;;;;5089331;28;20036;-62
2021/10/09 12:38:05;;;;;;;4.13;3.30;;;;;;;;;;5090543;28;20032;-63
2021/10/09 12:40:41;;;;;;;3.55;2.80;;;;;;;;;;5095016;28;20039;-63
2021/10/09 12:43:11;;;;;;;3.88;2.88;;;;;;;;;;5090467;28;20101;-63
2021/10/09 12:45:37;;;;;;;10.15;3.40;;;;;;;;;;5092717;28;20038;-63
2021/10/09 12:48:03;;;;;;;5.00;3.63;;;;;;;;;;5090941;28;20043;-63
2021/10/09 12:50:31;;;;;;;3.58;2.92;;;;;;;;;;5092460;28;20044;-63
2021/10/09 12:52:57;;;;;;;4.78;3.00;;;;;;;;;;5089774;28;20144;-63
2021/10/09 12:55:26;;;;;;;3.63;2.95;;;;;;;;;;5089713;28;20469;-63
2021/10/09 12:57:56;;;;;;;3.58;2.72;;;;;;;;;;5090364;28;20461;-63
2021/10/09 13:00:24;;;;;;;7.05;3.55;;;;;;;;;;5092536;28;20262;-63
2021/10/09 13:02:53;;;;;;;3.92;2.90;;;;;;;;;;5089297;28;20469;-63
2021/10/09 13:05:24;;;;;;;3.38;2.88;;;;;;;;;;5086885;28;20550;-63
2021/10/09 13:07:51;;;;;;;5.25;3.75;;;;;;;;;;5091362;28;20031;-63
2021/10/09 13:10:18;;;;;;;4.15;3.30;;;;;;;;;;5089403;28;20211;-63
2021/10/09 13:12:43;;;;;;;3.35;2.60;;;;;;;;;;5089764;28;20039;-63
2021/10/09 13:15:09;;;;;;;8.75;5.53;;;;;;;;;;5086350;28;20028;-64
2021/10/09 13:17:35;;;;;;;4.22;3.15;;;;;;;;;;5090522;28;20032;-63
2021/10/09 13:20:00;;;;;;;3.33;2.55;;;;;;;;;;5089719;28;20032;-64
2021/10/09 13:22:26;;;;;;;3.83;2.80;;;;;;;;;;5094857;28;20058;-64
2021/10/09 13:24:51;;;;;;;3.67;2.60;;;;;;;;;;5089659;28;20048;-64
2021/10/09 13:27:17;;;;;;;3.50;2.65;;;;;;;;;;5086049;28;20047;-63
2021/10/09 13:29:42;;;;;;;5.15;3.28;;;;;;;;;;5089775;28;20031;-63
2021/10/09 13:32:08;;;;;;;3.85;2.78;;;;;;;;;;5087126;28;20392;-63
2021/10/09 13:34:33;;;;;;;2.95;2.03;;;;;;;;;;5085988;28;20070;-63
2021/10/09 13:37:00;;;;;;;4.97;3.45;;;;;;;;;;5088762;28;20461;-62
2021/10/09 13:39:25;;;;;;;3.05;2.47;;;;;;;;;;5089522;28;20031;-65
2021/10/09 13:41:51;;;;;;;3.25;2.75;;;;;;;;;;5093452;28;20345;-63
2021/10/09 13:44:16;;;;;;;4.78;3.10;;;;;;;;;;5080926;28;20131;-63
2021/10/09 13:46:44;;;;;;;8.35;3.80;;;;;;;;;;5086796;28;20472;-63
2021/10/09 13:49:10;;;;;;;3.58;2.75;;;;;;;;;;5086569;28;20046;-62
2021/10/09 13:51:36;;;;;;;3.08;2.53;;;;;;;;;;5091935;28;20032;-63
2021/10/09 13:54:01;;;;;;;4.97;3.10;;;;;;;;;;5087877;28;20044;-62
2021/10/09 13:56:27;;;;;;;3.85;3.15;;;;;;;;;;5090842;28;20032;-62
2021/10/09 13:58:52;;;;;;;5.03;4.05;;;;;;;;;;5088151;28;20157;-62
2021/10/09 14:01:18;;;;;;;4.57;3.08;;;;;;;;;;5087529;28;20422;-63
2021/10/09 14:03:44;;;;;;;4.38;3.17;;;;;;;;;;5090982;28;20388;-63
2021/10/09 14:06:10;;;;;;;6.85;2.40;;;;;;;;;;5093113;28;20039;-61
2021/10/09 14:08:35;;;;;;;5.40;3.35;;;;;;;;;;5090100;28;20123;-62
2021/10/09 14:11:02;;;;;;;2.85;2.30;;;;;;;;;;5085247;28;20477;-62
2021/10/09 14:13:28;;;;;;;3.63;2.83;;;;;;;;;;5091812;28;20032;-62
2021/10/09 14:15:54;;;;;;;5.88;3.33;;;;;;;;;;5093022;28;20024;-62
2021/10/09 14:18:20;;;;;;;3.47;2.58;;;;;;;;;;5088271;28;20266;-62
2021/10/09 14:20:50;;;;;;;6.05;2.55;;;;;;;;;;5086402;28;20157;-62
2021/10/09 14:23:17;;;;;;;4.57;2.80;;;;;;;;;;5088597;28;20038;-62
2021/10/09 14:25:44;;;;;;;3.22;2.60;;;;;;;;;;5093234;28;20078;-62
2021/10/09 14:28:11;;;;;;;4.82;2.85;;;;;;;;;;5090624;28;20029;-62
2021/10/09 14:30:40;;;;;;;4.22;3.25;;;;;;;;;;5087543;28;20028;-62
2021/10/09 14:33:07;;;;;;;3.10;2.45;;;;;;;;;;5092769;28;20028;-63
2021/10/09 14:35:33;;;;;;;5.72;2.95;;;;;;;;;;5090125;28;20461;-63
2021/10/09 14:37:59;;;;;;;3.40;2.17;;;;;;;;;;5090396;28;20053;-62
2021/10/09 14:40:25;;;;;;;4.85;3.38;;;;;;;;;;5087977;28;20135;-62
2021/10/09 14:42:50;;;;;;;6.20;3.35;;;;;;;;;;5088364;28;20033;-63
2021/10/09 14:45:18;;;;;;;4.05;3.33;;;;;;;;;;5088453;28;20106;-62
2021/10/09 14:47:54;;;;;;;4.85;3.50;;;;;;;;;;5096534;28;20020;-62
2021/10/09 14:53:30;;;;;;;5.78;4.13;;;;;;;;;;5085135;28;20082;-62
2021/10/09 15:20:11;;;;;;;4.53;2.35;;;;;;;;;;5085695;28;20598;-62
2021/10/09 15:22:36;;;;;;;4.95;3.10;;;;;;;;;;5092486;28;20757;-62
2021/10/09 15:25:03;;;;;;;3.25;2.53;;;;;;;;;;5089987;28;20028;-62
2021/10/09 15:27:29;;;;;;;4.15;3.17;;;;;;;;;;5093977;28;20038;-62
2021/10/09 15:29:55;;;;;;;3.28;2.72;;;;;;;;;;5088961;28;20368;-62
2021/10/09 15:32:21;;;;;;;3.50;2.75;;;;;;;;;;5089402;28;20508;-62
2021/10/09 15:34:46;;;;;;;3.80;2.65;;;;;;;;;;5088470;28;20048;-62
2021/10/09 15:37:12;;;;;;;2.90;2.33;;;;;;;;;;5092084;28;20039;-62
2021/10/09 15:39:37;;;;;;;3.80;3.05;;;;;;;;;;5087901;28;20405;-62
2021/10/09 15:42:04;;;;;;;3.53;2.67;;;;;;;;;;5091290;28;20039;-62
2021/10/09 15:44:30;;;;;;;2.90;2.30;;;;;;;;;;5087425;28;20039;-62
2021/10/09 15:46:55;;;;;;;4.15;3.08;;;;;;;;;;5090213;28;20114;-62
2021/10/09 15:49:21;;;;;;;3.60;2.58;;;;;;;;;;5093893;28;20032;-62
2021/10/09 15:51:47;;;;;;;3.30;2.72;;;;;;;;;;5090008;28;20473;-62
2021/10/09 15:54:12;;;;;;;3.42;2.75;;;;;;;;;;5090292;28;20036;-63
2021/10/09 15:56:37;;;;;;;4.07;3.00;;;;;;;;;;5100729;28;20032;-63
2021/10/09 15:59:03;;;;;;;4.03;2.53;;;;;;;;;;5091422;28;20097;-63
2021/10/09 16:01:29;;;;;;;4.20;2.63;;;;;;;;;;5090034;28;20492;-63
2021/10/09 16:03:57;;;;;;;11.65;3.25;;;;;;;;;;5092669;28;20039;-63
2021/10/09 16:06:24;;;;;;;5.82;3.05;;;;;;;;;;5089345;28;20035;-63
2021/10/09 16:08:49;;;;;;;3.63;2.97;;;;;;;;;;5085691;28;20039;-63
2021/10/09 16:11:15;;;;;;;7.97;3.35;;;;;;;;;;5086969;28;20051;-63
2021/10/09 16:13:41;;;;;;;5.05;2.85;;;;;;;;;;5091931;28;20057;-63
2021/10/09 16:16:06;;;;;;;4.63;2.72;;;;;;;;;;5093702;28;20032;-63
2021/10/09 16:18:32;;;;;;;5.68;2.40;;;;;;;;;;5096382;28;20074;-63
2021/10/09 16:20:58;;;;;;;3.88;2.85;;;;;;;;;;5085863;28;20111;-63
2021/10/09 16:23:24;;;;;;;2.90;2.47;;;;;;;;;;5091972;28;20082;-62
2021/10/09 16:25:49;;;;;;;3.55;2.60;;;;;;;;;;5093489;28;20047;-62
2021/10/09 16:28:14;;;;;;;5.38;2.53;;;;;;;;;;5087238;28;20097;-63
2021/10/09 16:30:40;;;;;;;10.85;3.35;;;;;;;;;;5086501;28;20813;-63
2021/10/09 16:33:05;;;;;;;3.15;2.47;;;;;;;;;;5093326;28;20130;-63
2021/10/09 16:35:31;;;;;;;5.43;3.00;;;;;;;;;;5093594;28;20028;-64
2021/10/09 16:37:56;;;;;;;5.72;3.00;;;;;;;;;;5092142;28;20089;-63
2021/10/09 16:40:22;;;;;;;7.82;3.08;;;;;;;;;;5088231;28;20089;-63
2021/10/09 16:42:47;;;;;;;3.85;3.05;;;;;;;;;;5090666;28;20046;-63
2021/10/09 16:45:13;;;;;;;3.47;2.72;;;;;;;;;;5090247;28;20085;-63
2021/10/09 16:47:38;;;;;;;11.55;4.32;;;;;;;;;;5092145;28;20052;-62
2021/10/09 16:50:04;;;;;;;6.38;4.78;;;;;;;;;;5092942;28;20108;-63
2021/10/09 16:52:29;;;;;;;5.35;3.33;;;;;;;;;;5091808;28;20028;-63
2021/10/09 16:54:55;;;;;;;5.57;3.88;;;;;;;;;;5093807;28;20426;-62
2021/10/09 16:57:20;;;;;;;4.25;3.22;;;;;;;;;;5091528;28;20032;-63
2021/10/09 16:59:46;;;;;;;6.88;4.43;;;;;;;;;;5088598;28;20032;-63
2021/10/09 17:02:12;;;;;;;6.50;3.53;;;;;;;;;;5089007;28;20031;-62
2021/10/09 17:04:37;;;;;;;10.15;6.15;;;;;;;;;;5090022;28;20544;-63
2021/10/09 17:07:03;;;;;;;6.78;5.53;;;;;;;;;;5089228;28;20032;-63
2021/10/09 17:09:29;;;;;;;10.50;6.80;;;;;;;;;;5092450;28;20047;-63
2021/10/09 17:11:54;;;;;;;7.88;5.25;;;;;;;;;;5088413;28;20032;-62
2021/10/09 17:14:20;;;;;;;6.32;4.82;;;;;;;;;;5089869;28;20122;-62
2021/10/09 17:16:47;;;;;;;5.38;4.82;;;;;;;;;;5083959;28;20039;-63
2021/10/09 17:19:12;;;;;;;14.40;7.78;;;;;;;;;;5085910;28;20036;-63
2021/10/09 17:21:39;;;;;;;10.07;5.57;;;;;;;;;;5091989;28;20024;-63
2021/10/09 17:24:06;;;;;;;8.77;6.55;;;;;;;;;;5068829;28;20085;-63
2021/10/09 17:26:32;;;;;;;6.72;4.93;;;;;;;;;;5087397;28;20024;-63
2021/10/09 17:28:58;;;;;;;8.60;6.68;;;;;;;;;;5085098;28;20032;-65